sensor_id;sensor_type;location;lat;lon;timestamp;temperature;humidity
67769;DHT22;54569;52.018;5.584;2023-05-10T00:00:13;14.30;93.70
67769;DHT22;54569;52.018;5.584;2023-05-10T00:02:39;14.30;93.70
67769;DHT22;54569;52.018;5.584;2023-05-10T00:05:05;14.30;93.70
67769;DHT22;54569;52.018;5.584;2023-05-10T00:07:31;14.40;93.80
67769;DHT22;54569;52.018;5.584;2023-05-10T00:09:56;14.40;93.70
67769;DHT22;54569;52.018;5.584;2023-05-10T00:12:22;14.30;93.70
67769;DHT22;54569;52.018;5.584;2023-05-10T00:14:48;14.30;93.70
67769;DHT22;54569;52.018;5.584;2023-05-10T00:17:14;14.30;93.70
67769;DHT22;54569;52.018;5.584;2023-05-10T00:19:40;14.40;93.80
67769;DHT22;54569;52.018;5.584;2023-05-10T00:22:05;14.40;93.70
67769;DHT22;54569;52.018;5.584;2023-05-10T00:24:31;14.40;93.70
67769;DHT22;54569;52.018;5.584;2023-05-10T00:27:00;14.40;93.80
67769;DHT22;54569;52.018;5.584;2023-05-10T00:29:26;14.40;93.80
67769;DHT22;54569;52.018;5.584;2023-05-10T00:31:53;14.40;93.80
67769;DHT22;54569;52.018;5.584;2023-05-10T00:34:19;14.30;93.80
67769;DHT22;54569;52.018;5.584;2023-05-10T00:36:44;14.30;93.80
67769;DHT22;54569;52.018;5.584;2023-05-10T00:39:10;14.30;93.90
67769;DHT22;54569;52.018;5.584;2023-05-10T00:41:36;14.30;93.90
67769;DHT22;54569;52.018;5.584;2023-05-10T00:44:04;14.30;94.00
67769;DHT22;54569;52.018;5.584;2023-05-10T00:46:29;14.30;94.00
67769;DHT22;54569;52.018;5.584;2023-05-10T00:48:55;14.30;94.00
67769;DHT22;54569;52.018;5.584;2023-05-10T00:51:21;14.30;94.10
67769;DHT22;54569;52.018;5.584;2023-05-10T00:53:48;14.20;94.00
67769;DHT22;54569;52.018;5.584;2023-05-10T00:56:15;14.20;94.10
67769;DHT22;54569;52.018;5.584;2023-05-10T00:58:41;14.20;94.10
67769;DHT22;54569;52.018;5.584;2023-05-10T01:01:08;14.20;94.10
67769;DHT22;54569;52.018;5.584;2023-05-10T01:03:34;14.20;94.10
67769;DHT22;54569;52.018;5.584;2023-05-10T01:06:01;14.20;94.20
67769;DHT22;54569;52.018;5.584;2023-05-10T01:08:27;14.20;94.20
67769;DHT22;54569;52.018;5.584;2023-05-10T01:10:54;14.20;94.20
67769;DHT22;54569;52.018;5.584;2023-05-10T01:13:32;14.30;94.30
67769;DHT22;54569;52.018;5.584;2023-05-10T01:15:59;14.30;94.30
67769;DHT22;54569;52.018;5.584;2023-05-10T01:18:28;14.30;94.50
67769;DHT22;54569;52.018;5.584;2023-05-10T01:21:09;14.30;94.30
67769;DHT22;54569;52.018;5.584;2023-05-10T01:32:52;14.20;94.40
67769;DHT22;54569;52.018;5.584;2023-05-10T01:40:54;14.20;94.40
67769;DHT22;54569;52.018;5.584;2023-05-10T01:43:30;14.20;94.40
67769;DHT22;54569;52.018;5.584;2023-05-10T01:46:20;14.20;94.40
67769;DHT22;54569;52.018;5.584;2023-05-10T01:48:51;14.20;94.60
67769;DHT22;54569;52.018;5.584;2023-05-10T01:51:29;14.20;94.50
67769;DHT22;54569;52.018;5.584;2023-05-10T01:54:02;14.20;94.50
67769;DHT22;54569;52.018;5.584;2023-05-10T01:56:31;14.20;94.50
67769;DHT22;54569;52.018;5.584;2023-05-10T01:59:06;14.20;94.50
67769;DHT22;54569;52.018;5.584;2023-05-10T02:01:34;14.10;94.50
67769;DHT22;54569;52.018;5.584;2023-05-10T02:04:02;14.10;94.60
67769;DHT22;54569;52.018;5.584;2023-05-10T02:06:28;14.20;94.80
67769;DHT22;54569;52.018;5.584;2023-05-10T02:08:54;14.10;94.50
67769;DHT22;54569;52.018;5.584;2023-05-10T02:11:20;14.20;94.60
67769;DHT22;54569;52.018;5.584;2023-05-10T02:13:49;14.10;94.60
67769;DHT22;54569;52.018;5.584;2023-05-10T02:16:16;14.10;94.60
67769;DHT22;54569;52.018;5.584;2023-05-10T02:18:43;14.20;94.50
67769;DHT22;54569;52.018;5.584;2023-05-10T02:21:11;14.20;94.50
67769;DHT22;54569;52.018;5.584;2023-05-10T02:23:38;14.10;94.50
67769;DHT22;54569;52.018;5.584;2023-05-10T02:26:05;14.10;94.50
67769;DHT22;54569;52.018;5.584;2023-05-10T02:28:32;14.20;94.50
67769;DHT22;54569;52.018;5.584;2023-05-10T02:30:58;14.20;94.50
67769;DHT22;54569;52.018;5.584;2023-05-10T02:33:25;14.10;94.50
67769;DHT22;54569;52.018;5.584;2023-05-10T02:35:52;14.10;94.50
67769;DHT22;54569;52.018;5.584;2023-05-10T02:38:20;14.10;94.50
67769;DHT22;54569;52.018;5.584;2023-05-10T02:40:47;14.10;94.50
67769;DHT22;54569;52.018;5.584;2023-05-10T02:43:15;14.10;94.50
67769;DHT22;54569;52.018;5.584;2023-05-10T02:45:43;14.10;94.50
67769;DHT22;54569;52.018;5.584;2023-05-10T02:48:09;14.10;94.50
67769;DHT22;54569;52.018;5.584;2023-05-10T02:50:36;14.10;94.50
67769;DHT22;54569;52.018;5.584;2023-05-10T02:53:19;14.10;94.50
67769;DHT22;54569;52.018;5.584;2023-05-10T02:55:50;14.10;94.50
67769;DHT22;54569;52.018;5.584;2023-05-10T02:58:17;14.10;94.40
67769;DHT22;54569;52.018;5.584;2023-05-10T03:00:45;14.10;94.40
67769;DHT22;54569;52.018;5.584;2023-05-10T03:03:11;14.10;94.40
67769;DHT22;54569;52.018;5.584;2023-05-10T03:05:37;14.10;94.40
67769;DHT22;54569;52.018;5.584;2023-05-10T03:08:03;14.10;94.40
67769;DHT22;54569;52.018;5.584;2023-05-10T03:10:31;14.10;94.40
67769;DHT22;54569;52.018;5.584;2023-05-10T03:13:19;14.10;94.40
67769;DHT22;54569;52.018;5.584;2023-05-10T03:18:28;14.10;94.50
67769;DHT22;54569;52.018;5.584;2023-05-10T03:21:01;14.00;94.40
67769;DHT22;54569;52.018;5.584;2023-05-10T03:23:58;14.00;94.60
67769;DHT22;54569;52.018;5.584;2023-05-10T03:26:28;13.90;94.60
67769;DHT22;54569;52.018;5.584;2023-05-10T03:29:06;13.90;94.30
67769;DHT22;54569;52.018;5.584;2023-05-10T03:31:33;13.90;94.60
67769;DHT22;54569;52.018;5.584;2023-05-10T03:33:59;13.90;94.60
67769;DHT22;54569;52.018;5.584;2023-05-10T03:36:26;13.90;94.50
67769;DHT22;54569;52.018;5.584;2023-05-10T03:38:53;13.80;94.50
67769;DHT22;54569;52.018;5.584;2023-05-10T03:41:18;13.80;94.60
67769;DHT22;54569;52.018;5.584;2023-05-10T03:43:44;13.80;94.50
67769;DHT22;54569;52.018;5.584;2023-05-10T03:46:09;13.80;94.50
67769;DHT22;54569;52.018;5.584;2023-05-10T03:48:35;13.80;94.50
67769;DHT22;54569;52.018;5.584;2023-05-10T03:51:01;13.80;94.50
67769;DHT22;54569;52.018;5.584;2023-05-10T03:53:27;13.80;94.50
67769;DHT22;54569;52.018;5.584;2023-05-10T03:55:53;13.80;94.50
67769;DHT22;54569;52.018;5.584;2023-05-10T03:58:19;13.70;94.50
67769;DHT22;54569;52.018;5.584;2023-05-10T04:00:45;13.70;94.60
67769;DHT22;54569;52.018;5.584;2023-05-10T04:03:12;13.70;94.60
67769;DHT22;54569;52.018;5.584;2023-05-10T04:05:38;13.70;94.60
67769;DHT22;54569;52.018;5.584;2023-05-10T04:08:04;13.70;94.60
67769;DHT22;54569;52.018;5.584;2023-05-10T04:10:30;13.70;94.70
67769;DHT22;54569;52.018;5.584;2023-05-10T04:12:57;13.70;94.70
67769;DHT22;54569;52.018;5.584;2023-05-10T04:15:23;13.70;94.70
67769;DHT22;54569;52.018;5.584;2023-05-10T04:17:48;13.70;94.70
67769;DHT22;54569;52.018;5.584;2023-05-10T04:20:14;13.70;94.70
67769;DHT22;54569;52.018;5.584;2023-05-10T04:22:40;13.70;94.70
67769;DHT22;54569;52.018;5.584;2023-05-10T04:25:06;13.70;94.70
67769;DHT22;54569;52.018;5.584;2023-05-10T04:27:34;13.70;94.70
67769;DHT22;54569;52.018;5.584;2023-05-10T04:30:00;13.70;94.80
67769;DHT22;54569;52.018;5.584;2023-05-10T04:32:38;13.70;94.80
67769;DHT22;54569;52.018;5.584;2023-05-10T04:35:13;13.70;94.70
67769;DHT22;54569;52.018;5.584;2023-05-10T04:37:40;13.70;94.70
67769;DHT22;54569;52.018;5.584;2023-05-10T04:40:06;13.70;94.80
67769;DHT22;54569;52.018;5.584;2023-05-10T04:42:32;13.70;94.70
67769;DHT22;54569;52.018;5.584;2023-05-10T04:44:57;13.70;94.70
67769;DHT22;54569;52.018;5.584;2023-05-10T04:47:23;13.70;94.70
67769;DHT22;54569;52.018;5.584;2023-05-10T04:49:49;13.70;94.70
67769;DHT22;54569;52.018;5.584;2023-05-10T04:52:14;13.70;94.70
67769;DHT22;54569;52.018;5.584;2023-05-10T04:54:42;13.70;94.80
67769;DHT22;54569;52.018;5.584;2023-05-10T04:57:08;13.80;94.80
67769;DHT22;54569;52.018;5.584;2023-05-10T04:59:35;13.70;94.70
67769;DHT22;54569;52.018;5.584;2023-05-10T05:02:01;13.70;94.70
67769;DHT22;54569;52.018;5.584;2023-05-10T05:04:27;13.80;94.80
67769;DHT22;54569;52.018;5.584;2023-05-10T05:06:53;13.80;94.80
67769;DHT22;54569;52.018;5.584;2023-05-10T05:09:19;13.80;94.80
67769;DHT22;54569;52.018;5.584;2023-05-10T05:11:44;13.80;94.90
67769;DHT22;54569;52.018;5.584;2023-05-10T05:14:10;13.80;94.80
67769;DHT22;54569;52.018;5.584;2023-05-10T05:16:35;13.80;94.70
67769;DHT22;54569;52.018;5.584;2023-05-10T05:19:01;13.80;94.70
67769;DHT22;54569;52.018;5.584;2023-05-10T05:21:27;13.80;94.70
67769;DHT22;54569;52.018;5.584;2023-05-10T05:23:52;13.80;94.70
67769;DHT22;54569;52.018;5.584;2023-05-10T05:26:18;13.80;94.70
67769;DHT22;54569;52.018;5.584;2023-05-10T05:28:44;13.80;94.70
67769;DHT22;54569;52.018;5.584;2023-05-10T05:31:10;13.90;94.70
67769;DHT22;54569;52.018;5.584;2023-05-10T05:33:36;13.90;94.70
67769;DHT22;54569;52.018;5.584;2023-05-10T05:36:03;13.90;94.70
67769;DHT22;54569;52.018;5.584;2023-05-10T05:38:29;13.90;94.70
67769;DHT22;54569;52.018;5.584;2023-05-10T05:40:55;13.90;94.70
67769;DHT22;54569;52.018;5.584;2023-05-10T05:43:21;14.00;94.60
67769;DHT22;54569;52.018;5.584;2023-05-10T05:45:46;14.00;94.60
67769;DHT22;54569;52.018;5.584;2023-05-10T05:48:12;14.00;94.60
67769;DHT22;54569;52.018;5.584;2023-05-10T05:50:38;14.00;94.60
67769;DHT22;54569;52.018;5.584;2023-05-10T05:53:03;14.00;94.60
67769;DHT22;54569;52.018;5.584;2023-05-10T05:55:29;14.00;94.60
67769;DHT22;54569;52.018;5.584;2023-05-10T05:57:57;14.00;94.60
67769;DHT22;54569;52.018;5.584;2023-05-10T06:00:23;14.00;94.60
67769;DHT22;54569;52.018;5.584;2023-05-10T06:02:48;14.00;94.60
67769;DHT22;54569;52.018;5.584;2023-05-10T06:05:14;14.00;94.60
67769;DHT22;54569;52.018;5.584;2023-05-10T06:07:40;14.00;94.60
67769;DHT22;54569;52.018;5.584;2023-05-10T06:10:09;14.00;94.60
67769;DHT22;54569;52.018;5.584;2023-05-10T06:12:35;14.00;94.70
67769;DHT22;54569;52.018;5.584;2023-05-10T06:15:01;14.00;94.70
67769;DHT22;54569;52.018;5.584;2023-05-10T06:17:27;14.00;94.80
67769;DHT22;54569;52.018;5.584;2023-05-10T06:19:54;14.00;94.80
67769;DHT22;54569;52.018;5.584;2023-05-10T06:22:19;14.00;94.90
67769;DHT22;54569;52.018;5.584;2023-05-10T06:24:47;14.00;94.90
67769;DHT22;54569;52.018;5.584;2023-05-10T06:27:12;14.00;95.20
67769;DHT22;54569;52.018;5.584;2023-05-10T06:29:38;14.00;95.00
67769;DHT22;54569;52.018;5.584;2023-05-10T06:32:04;14.00;95.00
67769;DHT22;54569;52.018;5.584;2023-05-10T06:34:30;14.00;95.00
67769;DHT22;54569;52.018;5.584;2023-05-10T06:36:55;14.00;95.00
67769;DHT22;54569;52.018;5.584;2023-05-10T06:39:21;14.00;95.10
67769;DHT22;54569;52.018;5.584;2023-05-10T06:41:47;13.90;95.00
67769;DHT22;54569;52.018;5.584;2023-05-10T06:44:12;14.00;95.10
67769;DHT22;54569;52.018;5.584;2023-05-10T06:46:38;13.90;95.10
67769;DHT22;54569;52.018;5.584;2023-05-10T06:49:04;14.00;95.10
67769;DHT22;54569;52.018;5.584;2023-05-10T06:51:29;13.90;95.00
67769;DHT22;54569;52.018;5.584;2023-05-10T06:53:56;13.90;95.00
67769;DHT22;54569;52.018;5.584;2023-05-10T06:56:21;13.90;95.10
67769;DHT22;54569;52.018;5.584;2023-05-10T06:58:47;13.90;95.10
67769;DHT22;54569;52.018;5.584;2023-05-10T07:01:13;13.90;95.10
67769;DHT22;54569;52.018;5.584;2023-05-10T07:03:39;14.00;95.10
67769;DHT22;54569;52.018;5.584;2023-05-10T07:06:05;14.00;95.10
67769;DHT22;54569;52.018;5.584;2023-05-10T07:08:32;14.00;95.10
67769;DHT22;54569;52.018;5.584;2023-05-10T07:11:02;14.00;95.10
67769;DHT22;54569;52.018;5.584;2023-05-10T07:13:30;14.00;95.10
67769;DHT22;54569;52.018;5.584;2023-05-10T07:15:55;14.00;95.00
67769;DHT22;54569;52.018;5.584;2023-05-10T07:18:21;14.10;95.00
67769;DHT22;54569;52.018;5.584;2023-05-10T07:20:47;14.10;95.00
67769;DHT22;54569;52.018;5.584;2023-05-10T07:23:12;14.10;95.00
67769;DHT22;54569;52.018;5.584;2023-05-10T07:25:38;14.10;94.90
67769;DHT22;54569;52.018;5.584;2023-05-10T07:28:04;14.10;94.90
67769;DHT22;54569;52.018;5.584;2023-05-10T07:30:29;14.20;94.80
67769;DHT22;54569;52.018;5.584;2023-05-10T07:32:56;14.20;94.80
67769;DHT22;54569;52.018;5.584;2023-05-10T07:35:22;14.30;94.70
67769;DHT22;54569;52.018;5.584;2023-05-10T07:37:48;14.30;94.50
67769;DHT22;54569;52.018;5.584;2023-05-10T07:40:13;14.40;94.40
67769;DHT22;54569;52.018;5.584;2023-05-10T07:42:39;14.40;94.30
67769;DHT22;54569;52.018;5.584;2023-05-10T07:45:05;14.40;94.10
67769;DHT22;54569;52.018;5.584;2023-05-10T07:47:31;14.50;94.10
67769;DHT22;54569;52.018;5.584;2023-05-10T07:49:56;14.50;94.00
67769;DHT22;54569;52.018;5.584;2023-05-10T07:52:22;14.50;94.00
67769;DHT22;54569;52.018;5.584;2023-05-10T07:54:48;14.50;93.90
67769;DHT22;54569;52.018;5.584;2023-05-10T07:57:13;14.50;93.80
67769;DHT22;54569;52.018;5.584;2023-05-10T07:59:40;14.40;93.80
67769;DHT22;54569;52.018;5.584;2023-05-10T08:02:06;14.40;93.60
67769;DHT22;54569;52.018;5.584;2023-05-10T08:04:32;14.30;93.60
67769;DHT22;54569;52.018;5.584;2023-05-10T08:06:57;14.40;93.60
67769;DHT22;54569;52.018;5.584;2023-05-10T08:09:23;14.30;93.60
67769;DHT22;54569;52.018;5.584;2023-05-10T08:11:49;14.30;93.60
67769;DHT22;54569;52.018;5.584;2023-05-10T08:14:16;14.30;93.50
67769;DHT22;54569;52.018;5.584;2023-05-10T08:16:42;14.30;93.40
67769;DHT22;54569;52.018;5.584;2023-05-10T08:19:07;14.30;93.30
67769;DHT22;54569;52.018;5.584;2023-05-10T08:21:33;14.30;93.20
67769;DHT22;54569;52.018;5.584;2023-05-10T08:23:59;14.40;93.20
67769;DHT22;54569;52.018;5.584;2023-05-10T08:26:24;14.40;93.00
67769;DHT22;54569;52.018;5.584;2023-05-10T08:28:51;14.50;92.90
67769;DHT22;54569;52.018;5.584;2023-05-10T08:31:16;14.60;92.70
67769;DHT22;54569;52.018;5.584;2023-05-10T08:33:43;14.70;92.50
67769;DHT22;54569;52.018;5.584;2023-05-10T08:36:09;14.70;92.40
67769;DHT22;54569;52.018;5.584;2023-05-10T08:38:35;14.80;92.20
67769;DHT22;54569;52.018;5.584;2023-05-10T08:41:02;14.90;92.10
67769;DHT22;54569;52.018;5.584;2023-05-10T08:43:28;15.10;91.90
67769;DHT22;54569;52.018;5.584;2023-05-10T08:45:55;15.10;91.70
67769;DHT22;54569;52.018;5.584;2023-05-10T08:48:23;15.20;91.60
67769;DHT22;54569;52.018;5.584;2023-05-10T08:50:53;15.20;91.30
67769;DHT22;54569;52.018;5.584;2023-05-10T08:53:24;15.20;91.20
67769;DHT22;54569;52.018;5.584;2023-05-10T08:55:52;15.30;91.00
67769;DHT22;54569;52.018;5.584;2023-05-10T08:58:19;15.20;90.90
67769;DHT22;54569;52.018;5.584;2023-05-10T09:00:45;15.30;90.90
67769;DHT22;54569;52.018;5.584;2023-05-10T09:03:12;15.30;90.90
67769;DHT22;54569;52.018;5.584;2023-05-10T09:05:38;15.30;90.90
67769;DHT22;54569;52.018;5.584;2023-05-10T09:08:05;15.30;90.90
67769;DHT22;54569;52.018;5.584;2023-05-10T09:10:31;15.40;90.80
67769;DHT22;54569;52.018;5.584;2023-05-10T09:12:57;15.30;90.80
67769;DHT22;54569;52.018;5.584;2023-05-10T09:15:23;15.30;90.90
67769;DHT22;54569;52.018;5.584;2023-05-10T09:17:49;15.40;90.80
67769;DHT22;54569;52.018;5.584;2023-05-10T09:20:15;15.30;90.70
67769;DHT22;54569;52.018;5.584;2023-05-10T09:22:42;15.30;90.80
67769;DHT22;54569;52.018;5.584;2023-05-10T09:25:15;15.30;90.70
67769;DHT22;54569;52.018;5.584;2023-05-10T09:27:45;15.30;90.90
67769;DHT22;54569;52.018;5.584;2023-05-10T09:30:27;15.20;90.80
67769;DHT22;54569;52.018;5.584;2023-05-10T09:32:54;15.20;90.90
67769;DHT22;54569;52.018;5.584;2023-05-10T09:35:27;15.20;91.00
67769;DHT22;54569;52.018;5.584;2023-05-10T09:37:55;15.20;91.10
67769;DHT22;54569;52.018;5.584;2023-05-10T09:40:22;15.30;90.80
67769;DHT22;54569;52.018;5.584;2023-05-10T09:45:19;15.30;90.70
67769;DHT22;54569;52.018;5.584;2023-05-10T09:47:45;15.40;90.60
67769;DHT22;54569;52.018;5.584;2023-05-10T09:50:11;15.40;90.60
67769;DHT22;54569;52.018;5.584;2023-05-10T09:52:47;15.50;90.50
67769;DHT22;54569;52.018;5.584;2023-05-10T09:55:13;15.60;90.30
67769;DHT22;54569;52.018;5.584;2023-05-10T09:57:39;15.70;90.20
67769;DHT22;54569;52.018;5.584;2023-05-10T10:00:06;15.70;90.10
67769;DHT22;54569;52.018;5.584;2023-05-10T10:02:39;15.80;89.90
67769;DHT22;54569;52.018;5.584;2023-05-10T10:05:06;15.80;89.70
67769;DHT22;54569;52.018;5.584;2023-05-10T10:07:32;15.80;89.80
67769;DHT22;54569;52.018;5.584;2023-05-10T10:09:58;15.80;89.60
67769;DHT22;54569;52.018;5.584;2023-05-10T10:12:25;15.80;89.40
67769;DHT22;54569;52.018;5.584;2023-05-10T10:14:51;15.80;89.30
67769;DHT22;54569;52.018;5.584;2023-05-10T10:17:17;15.80;89.30
67769;DHT22;54569;52.018;5.584;2023-05-10T10:19:42;15.80;89.10
67769;DHT22;54569;52.018;5.584;2023-05-10T10:22:08;15.90;89.00
67769;DHT22;54569;52.018;5.584;2023-05-10T10:24:40;16.00;88.60
67769;DHT22;54569;52.018;5.584;2023-05-10T10:27:15;16.00;88.20
67769;DHT22;54569;52.018;5.584;2023-05-10T10:29:56;16.10;87.80
67769;DHT22;54569;52.018;5.584;2023-05-10T10:35:32;16.20;86.70
67769;DHT22;54569;52.018;5.584;2023-05-10T10:37:58;16.10;87.10
67769;DHT22;54569;52.018;5.584;2023-05-10T10:40:32;16.10;87.10
67769;DHT22;54569;52.018;5.584;2023-05-10T10:42:58;16.10;86.90
67769;DHT22;54569;52.018;5.584;2023-05-10T10:45:24;16.00;85.50
67769;DHT22;54569;52.018;5.584;2023-05-10T10:48:20;16.00;87.40
67769;DHT22;54569;52.018;5.584;2023-05-10T10:50:46;16.00;86.90
67769;DHT22;54569;52.018;5.584;2023-05-10T10:53:12;16.00;87.30
67769;DHT22;54569;52.018;5.584;2023-05-10T10:55:48;16.10;87.80
67769;DHT22;54569;52.018;5.584;2023-05-10T10:58:33;16.10;87.10
67769;DHT22;54569;52.018;5.584;2023-05-10T11:01:16;16.20;86.90
67769;DHT22;54569;52.018;5.584;2023-05-10T11:06:33;16.20;86.30
67769;DHT22;54569;52.018;5.584;2023-05-10T11:09:09;16.20;86.50
67769;DHT22;54569;52.018;5.584;2023-05-10T11:11:36;16.20;86.50
67769;DHT22;54569;52.018;5.584;2023-05-10T11:14:06;16.20;86.20
67769;DHT22;54569;52.018;5.584;2023-05-10T11:16:42;16.30;86.20
67769;DHT22;54569;52.018;5.584;2023-05-10T11:19:13;16.30;86.00
67769;DHT22;54569;52.018;5.584;2023-05-10T11:21:50;16.30;86.00
67769;DHT22;54569;52.018;5.584;2023-05-10T11:24:21;16.40;85.80
67769;DHT22;54569;52.018;5.584;2023-05-10T11:26:50;16.50;85.50
67769;DHT22;54569;52.018;5.584;2023-05-10T11:29:16;16.60;85.10
67769;DHT22;54569;52.018;5.584;2023-05-10T11:31:45;16.60;84.80
67769;DHT22;54569;52.018;5.584;2023-05-10T11:34:29;16.60;84.80
67769;DHT22;54569;52.018;5.584;2023-05-10T11:36:57;16.60;84.80
67769;DHT22;54569;52.018;5.584;2023-05-10T11:39:30;16.60;85.30
67769;DHT22;54569;52.018;5.584;2023-05-10T11:41:59;16.60;85.00
67769;DHT22;54569;52.018;5.584;2023-05-10T11:44:34;16.70;84.90
67769;DHT22;54569;52.018;5.584;2023-05-10T11:47:00;16.80;84.80
67769;DHT22;54569;52.018;5.584;2023-05-10T11:49:26;16.80;84.70
67769;DHT22;54569;52.018;5.584;2023-05-10T11:51:52;16.90;84.30
67769;DHT22;54569;52.018;5.584;2023-05-10T11:54:17;16.90;84.10
67769;DHT22;54569;52.018;5.584;2023-05-10T11:56:43;16.90;84.50
67769;DHT22;54569;52.018;5.584;2023-05-10T11:59:10;17.00;84.40
67769;DHT22;54569;52.018;5.584;2023-05-10T12:01:36;17.00;83.90
67769;DHT22;54569;52.018;5.584;2023-05-10T12:04:02;17.00;83.80
67769;DHT22;54569;52.018;5.584;2023-05-10T12:06:29;17.00;83.60
67769;DHT22;54569;52.018;5.584;2023-05-10T12:08:56;17.10;83.60
67769;DHT22;54569;52.018;5.584;2023-05-10T12:11:25;17.20;83.80
67769;DHT22;54569;52.018;5.584;2023-05-10T12:13:51;17.40;83.40
67769;DHT22;54569;52.018;5.584;2023-05-10T12:16:18;17.50;82.50
67769;DHT22;54569;52.018;5.584;2023-05-10T12:18:45;17.70;81.90
67769;DHT22;54569;52.018;5.584;2023-05-10T12:21:13;17.90;81.50
67769;DHT22;54569;52.018;5.584;2023-05-10T12:23:41;18.00;80.60
67769;DHT22;54569;52.018;5.584;2023-05-10T12:26:09;18.10;80.30
67769;DHT22;54569;52.018;5.584;2023-05-10T12:28:38;18.20;80.00
67769;DHT22;54569;52.018;5.584;2023-05-10T12:31:05;18.20;79.60
67769;DHT22;54569;52.018;5.584;2023-05-10T12:33:42;18.20;79.40
67769;DHT22;54569;52.018;5.584;2023-05-10T12:36:09;18.10;79.50
67769;DHT22;54569;52.018;5.584;2023-05-10T12:38:38;18.10;79.80
67769;DHT22;54569;52.018;5.584;2023-05-10T12:41:13;18.20;80.00
67769;DHT22;54569;52.018;5.584;2023-05-10T12:43:39;18.20;79.70
67769;DHT22;54569;52.018;5.584;2023-05-10T12:48:32;18.00;79.90
67769;DHT22;54569;52.018;5.584;2023-05-10T12:51:00;17.90;80.00
67769;DHT22;54569;52.018;5.584;2023-05-10T12:53:25;17.80;80.40
67769;DHT22;54569;52.018;5.584;2023-05-10T12:55:51;17.70;80.50
67769;DHT22;54569;52.018;5.584;2023-05-10T12:58:17;17.60;80.80
67769;DHT22;54569;52.018;5.584;2023-05-10T13:00:42;17.50;81.00
67769;DHT22;54569;52.018;5.584;2023-05-10T13:03:09;17.40;81.10
67769;DHT22;54569;52.018;5.584;2023-05-10T13:05:35;17.30;81.70
67769;DHT22;54569;52.018;5.584;2023-05-10T13:08:01;17.10;82.10
67769;DHT22;54569;52.018;5.584;2023-05-10T13:10:29;17.00;82.70
67769;DHT22;54569;52.018;5.584;2023-05-10T13:12:56;16.90;83.00
67769;DHT22;54569;52.018;5.584;2023-05-10T13:15:22;16.80;83.80
67769;DHT22;54569;52.018;5.584;2023-05-10T13:17:48;16.60;84.30
67769;DHT22;54569;52.018;5.584;2023-05-10T13:20:14;16.60;84.80
67769;DHT22;54569;52.018;5.584;2023-05-10T13:22:41;16.50;85.50
67769;DHT22;54569;52.018;5.584;2023-05-10T13:25:15;16.40;86.10
67769;DHT22;54569;52.018;5.584;2023-05-10T13:27:40;16.40;86.10
67769;DHT22;54569;52.018;5.584;2023-05-10T13:30:14;16.20;85.10
67769;DHT22;54569;52.018;5.584;2023-05-10T13:32:54;16.10;86.90
67769;DHT22;54569;52.018;5.584;2023-05-10T13:35:22;16.10;87.10
67769;DHT22;54569;52.018;5.584;2023-05-10T13:37:52;15.90;87.80
67769;DHT22;54569;52.018;5.584;2023-05-10T13:40:19;15.80;88.50
67769;DHT22;54569;52.018;5.584;2023-05-10T13:42:44;15.70;88.90
67769;DHT22;54569;52.018;5.584;2023-05-10T13:45:10;15.60;89.40
67769;DHT22;54569;52.018;5.584;2023-05-10T13:47:37;15.50;89.80
67769;DHT22;54569;52.018;5.584;2023-05-10T13:50:03;15.50;90.10
67769;DHT22;54569;52.018;5.584;2023-05-10T13:52:29;15.40;90.20
67769;DHT22;54569;52.018;5.584;2023-05-10T13:54:55;15.50;90.30
67769;DHT22;54569;52.018;5.584;2023-05-10T13:57:21;15.50;90.30
67769;DHT22;54569;52.018;5.584;2023-05-10T13:59:47;15.50;90.40
67769;DHT22;54569;52.018;5.584;2023-05-10T14:02:13;15.40;90.40
67769;DHT22;54569;52.018;5.584;2023-05-10T14:04:39;15.40;90.50
67769;DHT22;54569;52.018;5.584;2023-05-10T14:07:04;15.40;90.60
67769;DHT22;54569;52.018;5.584;2023-05-10T14:09:30;15.40;90.60
67769;DHT22;54569;52.018;5.584;2023-05-10T14:11:56;15.30;90.70
67769;DHT22;54569;52.018;5.584;2023-05-10T14:14:21;15.30;90.90
67769;DHT22;54569;52.018;5.584;2023-05-10T14:16:47;15.30;90.90
67769;DHT22;54569;52.018;5.584;2023-05-10T14:19:13;15.30;91.00
67769;DHT22;54569;52.018;5.584;2023-05-10T14:21:38;15.30;91.20
67769;DHT22;54569;52.018;5.584;2023-05-10T14:24:04;15.40;92.20
67769;DHT22;54569;52.018;5.584;2023-05-10T14:26:32;15.30;91.00
67769;DHT22;54569;52.018;5.584;2023-05-10T14:28:57;15.30;90.90
67769;DHT22;54569;52.018;5.584;2023-05-10T14:31:24;15.30;91.00
67769;DHT22;54569;52.018;5.584;2023-05-10T14:33:51;15.20;91.00
67769;DHT22;54569;52.018;5.584;2023-05-10T14:36:17;15.30;91.00
67769;DHT22;54569;52.018;5.584;2023-05-10T14:38:43;15.30;91.00
67769;DHT22;54569;52.018;5.584;2023-05-10T14:41:09;15.30;91.10
67769;DHT22;54569;52.018;5.584;2023-05-10T14:43:36;15.30;91.00
67769;DHT22;54569;52.018;5.584;2023-05-10T14:46:02;15.40;91.10
67769;DHT22;54569;52.018;5.584;2023-05-10T14:48:27;15.40;91.10
67769;DHT22;54569;52.018;5.584;2023-05-10T14:50:53;15.40;91.10
67769;DHT22;54569;52.018;5.584;2023-05-10T14:53:18;15.50;91.10
67769;DHT22;54569;52.018;5.584;2023-05-10T14:55:44;15.50;91.10
67769;DHT22;54569;52.018;5.584;2023-05-10T14:58:10;15.50;91.10
67769;DHT22;54569;52.018;5.584;2023-05-10T15:00:35;15.50;91.10
67769;DHT22;54569;52.018;5.584;2023-05-10T15:03:01;15.50;91.10
67769;DHT22;54569;52.018;5.584;2023-05-10T15:05:27;15.50;91.10
67769;DHT22;54569;52.018;5.584;2023-05-10T15:07:53;15.50;91.20
67769;DHT22;54569;52.018;5.584;2023-05-10T15:10:18;15.50;91.20
67769;DHT22;54569;52.018;5.584;2023-05-10T15:12:44;15.60;91.30
67769;DHT22;54569;52.018;5.584;2023-05-10T15:15:09;15.60;91.30
67769;DHT22;54569;52.018;5.584;2023-05-10T15:17:35;15.70;91.30
67769;DHT22;54569;52.018;5.584;2023-05-10T15:20:01;15.80;91.30
67769;DHT22;54569;52.018;5.584;2023-05-10T15:22:30;15.80;91.30
67769;DHT22;54569;52.018;5.584;2023-05-10T15:24:57;15.90;91.20
67769;DHT22;54569;52.018;5.584;2023-05-10T15:27:24;15.90;91.10
67769;DHT22;54569;52.018;5.584;2023-05-10T15:29:49;16.00;91.10
67769;DHT22;54569;52.018;5.584;2023-05-10T15:32:15;16.00;91.00
67769;DHT22;54569;52.018;5.584;2023-05-10T15:34:41;16.10;90.90
67769;DHT22;54569;52.018;5.584;2023-05-10T15:37:06;16.10;90.90
67769;DHT22;54569;52.018;5.584;2023-05-10T15:39:32;16.20;90.80
67769;DHT22;54569;52.018;5.584;2023-05-10T15:41:58;16.20;90.80
67769;DHT22;54569;52.018;5.584;2023-05-10T15:44:24;16.20;90.90
67769;DHT22;54569;52.018;5.584;2023-05-10T15:46:49;16.20;90.90
67769;DHT22;54569;52.018;5.584;2023-05-10T15:49:16;16.20;90.90
67769;DHT22;54569;52.018;5.584;2023-05-10T15:51:41;16.20;90.90
67769;DHT22;54569;52.018;5.584;2023-05-10T15:54:07;16.30;91.00
67769;DHT22;54569;52.018;5.584;2023-05-10T15:56:32;16.30;90.90
67769;DHT22;54569;52.018;5.584;2023-05-10T15:58:59;16.30;90.80